Saint Meinrad, Indiana
Current Conditions -  °F | °C
As of 7:55 AM on Monday 22 Dec 2014 (Local Time) from KHNB Reporting Station
Overcast Overcast  
Wind Chill: 35°   Ceiling: 1700
Heat Index: 41°   Visibility: 10mi
Dew Point: 36°   Wind: 9mph
Humidity: 81%   Direction: 130°SE
Pressure: 29.92"   Gusts: NA
Location:  38.17°N, 86.81°W
Report Text: KHNB 221355Z AUTO 13008KT 10SM OVC017 05/02 A2992 RMK AO1
Loading
Personal Weather Stations






























Interactive Weather Map New forecast layout! Learn more

10-Day Weather Forecast

Advertisements
Track Severe Weather on mobile